« Back
NWS Peachtree City, Ga » Text Product » MCN Terminal Aerodrome Forecast


Printer-friendly Version
Current Version              Previous Versions:   1  2  3  4  5  6  7  8  9  

Terminal Aerodrome Forecast

397
FTUS42 KFFC 271745
TAFMCN
TAF
KMCN 271745Z 2718/2818 36006KT P6SM FEW250
     FM280000 01005KT P6SM SCT250
     FM280900 07008KT P6SM SCT020
     FM281500 07010G16KT P6SM SCT030=

USA.gov is the U.S. government's official web portal to all federal, state and local government web resources and services.